sensor_id;sensor_type;location;lat;lon;timestamp;pressure;altitude;pressure_sealevel;temperature;humidity
62779;BME280;48821;48.796;2.396;2023-03-14T00:00:08;99314.38;;;13.71;61.60
62779;BME280;48821;48.796;2.396;2023-03-14T00:01:23;99309.09;;;13.71;61.91
62779;BME280;48821;48.796;2.396;2023-03-14T00:02:37;99306.31;;;13.73;61.64
62779;BME280;48821;48.796;2.396;2023-03-14T00:03:50;99296.72;;;13.72;61.68
62779;BME280;48821;48.796;2.396;2023-03-14T00:05:04;99306.44;;;13.71;61.91
62779;BME280;48821;48.796;2.396;2023-03-14T00:06:19;99293.25;;;13.71;61.67
62779;BME280;48821;48.796;2.396;2023-03-14T00:07:38;99299.38;;;13.72;62.07
62779;BME280;48821;48.796;2.396;2023-03-14T00:08:51;99281.75;;;13.72;61.97
62779;BME280;48821;48.796;2.396;2023-03-14T00:10:08;99284.38;;;13.72;62.23
62779;BME280;48821;48.796;2.396;2023-03-14T00:11:22;99292.31;;;13.72;62.29
62779;BME280;48821;48.796;2.396;2023-03-14T00:12:36;99285.19;;;13.73;62.80
62779;BME280;48821;48.796;2.396;2023-03-14T00:13:52;99293.03;;;13.75;63.13
62779;BME280;48821;48.796;2.396;2023-03-14T00:15:06;99289.44;;;13.76;63.03
62779;BME280;48821;48.796;2.396;2023-03-14T00:16:20;99286.06;;;13.73;63.41
62779;BME280;48821;48.796;2.396;2023-03-14T00:17:34;99292.31;;;13.72;62.73
62779;BME280;48821;48.796;2.396;2023-03-14T00:18:48;99287.09;;;13.71;63.32
62779;BME280;48821;48.796;2.396;2023-03-14T00:20:04;99288.81;;;13.72;63.57
62779;BME280;48821;48.796;2.396;2023-03-14T00:21:21;99297.66;;;13.71;63.11
62779;BME280;48821;48.796;2.396;2023-03-14T00:22:35;99286.25;;;13.70;63.53
62779;BME280;48821;48.796;2.396;2023-03-14T00:23:48;99287.22;;;13.69;63.71
62779;BME280;48821;48.796;2.396;2023-03-14T00:25:02;99284.78;;;13.66;63.48
62779;BME280;48821;48.796;2.396;2023-03-14T00:26:17;99273.50;;;13.64;63.44
62779;BME280;48821;48.796;2.396;2023-03-14T00:27:31;99280.56;;;13.64;63.52
62779;BME280;48821;48.796;2.396;2023-03-14T00:28:44;99273.69;;;13.61;63.55
62779;BME280;48821;48.796;2.396;2023-03-14T00:29:57;99267.59;;;13.60;63.79
62779;BME280;48821;48.796;2.396;2023-03-14T00:31:13;99266.84;;;13.58;63.74
62779;BME280;48821;48.796;2.396;2023-03-14T00:32:27;99270.44;;;13.57;64.00
62779;BME280;48821;48.796;2.396;2023-03-14T00:33:41;99272.31;;;13.55;63.84
62779;BME280;48821;48.796;2.396;2023-03-14T00:34:54;99281.06;;;13.56;63.94
62779;BME280;48821;48.796;2.396;2023-03-14T00:36:10;99267.88;;;13.56;63.87
62779;BME280;48821;48.796;2.396;2023-03-14T00:37:23;99270.63;;;13.54;64.05
62779;BME280;48821;48.796;2.396;2023-03-14T00:38:38;99272.41;;;13.54;63.85
62779;BME280;48821;48.796;2.396;2023-03-14T00:39:52;99278.66;;;13.53;63.81
62779;BME280;48821;48.796;2.396;2023-03-14T00:41:07;99277.81;;;13.52;64.24
62779;BME280;48821;48.796;2.396;2023-03-14T00:42:21;99285.72;;;13.52;64.22
62779;BME280;48821;48.796;2.396;2023-03-14T00:43:34;99270.00;;;13.50;64.31
62779;BME280;48821;48.796;2.396;2023-03-14T00:44:47;99263.97;;;13.48;64.45
62779;BME280;48821;48.796;2.396;2023-03-14T00:46:00;99266.59;;;13.48;64.31
62779;BME280;48821;48.796;2.396;2023-03-14T00:47:14;99266.59;;;13.48;64.38
62779;BME280;48821;48.796;2.396;2023-03-14T00:48:27;99253.53;;;13.47;64.41
62779;BME280;48821;48.796;2.396;2023-03-14T00:49:40;99258.81;;;13.47;64.24
62779;BME280;48821;48.796;2.396;2023-03-14T00:50:56;99261.56;;;13.45;64.42
62779;BME280;48821;48.796;2.396;2023-03-14T00:52:09;99265.13;;;13.44;64.33
62779;BME280;48821;48.796;2.396;2023-03-14T00:53:23;99258.19;;;13.43;64.57
62779;BME280;48821;48.796;2.396;2023-03-14T00:54:36;99258.38;;;13.40;64.48
62779;BME280;48821;48.796;2.396;2023-03-14T00:55:49;99268.75;;;13.43;64.34
62779;BME280;48821;48.796;2.396;2023-03-14T00:57:03;99270.63;;;13.41;64.75
62779;BME280;48821;48.796;2.396;2023-03-14T00:58:17;99266.19;;;13.42;64.97
62779;BME280;48821;48.796;2.396;2023-03-14T00:59:30;99263.66;;;13.40;64.65
62779;BME280;48821;48.796;2.396;2023-03-14T01:00:44;99268.94;;;13.40;64.84
62779;BME280;48821;48.796;2.396;2023-03-14T01:01:58;99267.97;;;13.41;64.61
62779;BME280;48821;48.796;2.396;2023-03-14T01:03:12;99265.34;;;13.41;64.82
62779;BME280;48821;48.796;2.396;2023-03-14T01:04:26;99266.31;;;13.40;64.83
62779;BME280;48821;48.796;2.396;2023-03-14T01:05:40;99258.38;;;13.40;64.82
62779;BME280;48821;48.796;2.396;2023-03-14T01:06:53;99253.97;;;13.41;64.97
62779;BME280;48821;48.796;2.396;2023-03-14T01:08:07;99265.34;;;13.41;65.11
62779;BME280;48821;48.796;2.396;2023-03-14T01:09:20;99260.06;;;13.41;64.76
62779;BME280;48821;48.796;2.396;2023-03-14T01:10:37;99263.66;;;13.40;64.93
62779;BME280;48821;48.796;2.396;2023-03-14T01:11:50;99255.00;;;13.38;65.11
62779;BME280;48821;48.796;2.396;2023-03-14T01:13:03;99260.28;;;13.38;65.06
62779;BME280;48821;48.796;2.396;2023-03-14T01:14:16;99262.09;;;13.37;64.87
62779;BME280;48821;48.796;2.396;2023-03-14T01:15:27;99257.66;;;13.38;65.18
62779;BME280;48821;48.796;2.396;2023-03-14T01:16:38;99259.31;;;13.39;64.89
62779;BME280;48821;48.796;2.396;2023-03-14T01:17:50;99263.66;;;13.40;64.81
62779;BME280;48821;48.796;2.396;2023-03-14T01:19:01;99263.66;;;13.40;65.13
62779;BME280;48821;48.796;2.396;2023-03-14T01:20:15;99252.13;;;13.41;64.98
62779;BME280;48821;48.796;2.396;2023-03-14T01:21:30;99258.19;;;13.43;64.79
62779;BME280;48821;48.796;2.396;2023-03-14T01:22:42;99247.63;;;13.43;64.73
62779;BME280;48821;48.796;2.396;2023-03-14T01:23:57;99260.81;;;13.43;64.90
62779;BME280;48821;48.796;2.396;2023-03-14T01:25:11;99258.19;;;13.43;64.82
62779;BME280;48821;48.796;2.396;2023-03-14T01:26:27;99258.19;;;13.43;65.10
62779;BME280;48821;48.796;2.396;2023-03-14T01:27:40;99264.28;;;13.44;64.76
62779;BME280;48821;48.796;2.396;2023-03-14T01:28:53;99256.28;;;13.45;65.02
62779;BME280;48821;48.796;2.396;2023-03-14T01:30:05;99257.94;;;13.46;65.12
62779;BME280;48821;48.796;2.396;2023-03-14T01:31:17;99256.16;;;13.47;65.18
62779;BME280;48821;48.796;2.396;2023-03-14T01:32:28;99258.91;;;13.45;64.96
62779;BME280;48821;48.796;2.396;2023-03-14T01:33:39;99245.72;;;13.45;64.98
62779;BME280;48821;48.796;2.396;2023-03-14T01:34:50;99257.09;;;13.46;65.07
62779;BME280;48821;48.796;2.396;2023-03-14T01:36:01;99250.88;;;13.47;64.95
62779;BME280;48821;48.796;2.396;2023-03-14T01:37:17;99252.66;;;13.46;64.95
62779;BME280;48821;48.796;2.396;2023-03-14T01:38:32;99258.81;;;13.47;65.32
62779;BME280;48821;48.796;2.396;2023-03-14T01:39:47;99248.25;;;13.47;65.10
62779;BME280;48821;48.796;2.396;2023-03-14T01:41:01;99259.66;;;13.47;65.06
62779;BME280;48821;48.796;2.396;2023-03-14T01:42:15;99253.41;;;13.48;65.11
62779;BME280;48821;48.796;2.396;2023-03-14T01:43:29;99261.31;;;13.48;65.12
62779;BME280;48821;48.796;2.396;2023-03-14T01:44:52;99250.75;;;13.48;65.08
62779;BME280;48821;48.796;2.396;2023-03-14T01:47:19;99258.69;;;13.48;65.30
62779;BME280;48821;48.796;2.396;2023-03-14T01:48:37;99254.38;;;13.47;65.12
62779;BME280;48821;48.796;2.396;2023-03-14T01:50:03;99259.66;;;13.47;65.33
62779;BME280;48821;48.796;2.396;2023-03-14T01:51:30;99255.22;;;13.48;65.51
62779;BME280;48821;48.796;2.396;2023-03-14T01:52:49;99271.16;;;13.46;65.43
62779;BME280;48821;48.796;2.396;2023-03-14T01:54:14;99256.16;;;13.47;65.41
62779;BME280;48821;48.796;2.396;2023-03-14T01:55:29;99257.00;;;13.47;65.50
62779;BME280;48821;48.796;2.396;2023-03-14T01:56:46;99256.16;;;13.47;65.71
62779;BME280;48821;48.796;2.396;2023-03-14T01:58:03;99267.44;;;13.49;65.65
62779;BME280;48821;48.796;2.396;2023-03-14T01:59:17;99257.00;;;13.47;65.36
62779;BME280;48821;48.796;2.396;2023-03-14T02:00:31;99261.31;;;13.48;65.46
62779;BME280;48821;48.796;2.396;2023-03-14T02:01:46;99262.19;;;13.49;65.55
62779;BME280;48821;48.796;2.396;2023-03-14T02:03:07;99268.41;;;13.48;65.67
62779;BME280;48821;48.796;2.396;2023-03-14T02:04:23;99273.78;;;13.46;65.72
62779;BME280;48821;48.796;2.396;2023-03-14T02:05:40;99283.50;;;13.46;65.93
62779;BME280;48821;48.796;2.396;2023-03-14T02:07:12;99266.94;;;13.44;65.81
62779;BME280;48821;48.796;2.396;2023-03-14T02:08:27;99265.13;;;13.44;65.97
62779;BME280;48821;48.796;2.396;2023-03-14T02:09:41;99272.44;;;13.41;65.85
62779;BME280;48821;48.796;2.396;2023-03-14T02:10:55;99268.09;;;13.39;65.99
62779;BME280;48821;48.796;2.396;2023-03-14T02:12:09;99265.56;;;13.38;66.17
62779;BME280;48821;48.796;2.396;2023-03-14T02:13:24;99266.38;;;13.38;65.92
62779;BME280;48821;48.796;2.396;2023-03-14T02:14:37;99263.66;;;13.40;66.44
62779;BME280;48821;48.796;2.396;2023-03-14T02:15:50;99260.28;;;13.38;65.94
62779;BME280;48821;48.796;2.396;2023-03-14T02:17:05;99266.38;;;13.38;66.33
62779;BME280;48821;48.796;2.396;2023-03-14T02:18:20;99258.47;;;13.38;66.07
62779;BME280;48821;48.796;2.396;2023-03-14T02:21:14;99272.53;;;13.39;66.32
62779;BME280;48821;48.796;2.396;2023-03-14T02:22:30;99267.25;;;13.39;66.63
62779;BME280;48821;48.796;2.396;2023-03-14T02:23:48;99261.97;;;13.39;66.40
62779;BME280;48821;48.796;2.396;2023-03-14T02:25:08;99261.97;;;13.39;66.57
62779;BME280;48821;48.796;2.396;2023-03-14T02:26:36;99262.81;;;13.39;66.62
62779;BME280;48821;48.796;2.396;2023-03-14T02:27:51;99263.75;;;13.38;66.58
62779;BME280;48821;48.796;2.396;2023-03-14T02:29:05;99256.81;;;13.37;66.91
62779;BME280;48821;48.796;2.396;2023-03-14T02:30:21;99255.09;;;13.36;67.06
62779;BME280;48821;48.796;2.396;2023-03-14T02:31:35;99255.09;;;13.36;66.90
62779;BME280;48821;48.796;2.396;2023-03-14T02:32:52;99257.84;;;13.35;67.38
62779;BME280;48821;48.796;2.396;2023-03-14T02:34:07;99263.00;;;13.36;67.17
62779;BME280;48821;48.796;2.396;2023-03-14T02:35:23;99262.16;;;13.36;67.05
62779;BME280;48821;48.796;2.396;2023-03-14T02:36:38;99250.78;;;13.35;67.01
62779;BME280;48821;48.796;2.396;2023-03-14T02:38:02;99250.78;;;13.35;67.23
62779;BME280;48821;48.796;2.396;2023-03-14T02:39:24;99250.78;;;13.35;67.26
62779;BME280;48821;48.796;2.396;2023-03-14T02:40:40;99250.66;;;13.37;67.38
62779;BME280;48821;48.796;2.396;2023-03-14T02:41:53;99246.34;;;13.36;67.21
62779;BME280;48821;48.796;2.396;2023-03-14T02:43:07;99244.66;;;13.35;67.24
62779;BME280;48821;48.796;2.396;2023-03-14T02:44:20;99245.50;;;13.35;67.43
62779;BME280;48821;48.796;2.396;2023-03-14T02:45:40;99251.63;;;13.36;67.44
62779;BME280;48821;48.796;2.396;2023-03-14T02:46:53;99243.81;;;13.34;67.35
62779;BME280;48821;48.796;2.396;2023-03-14T02:48:11;99247.31;;;13.35;67.44
62779;BME280;48821;48.796;2.396;2023-03-14T02:49:27;99245.50;;;13.35;67.65
62779;BME280;48821;48.796;2.396;2023-03-14T02:50:45;99248.25;;;13.34;67.30
62779;BME280;48821;48.796;2.396;2023-03-14T02:51:58;99245.59;;;13.34;67.38
62779;BME280;48821;48.796;2.396;2023-03-14T02:53:13;99239.38;;;13.35;67.49
62779;BME280;48821;48.796;2.396;2023-03-14T02:54:27;99240.31;;;13.34;67.42
62779;BME280;48821;48.796;2.396;2023-03-14T02:55:40;99233.38;;;13.33;67.45
62779;BME280;48821;48.796;2.396;2023-03-14T02:56:57;99236.88;;;13.33;67.62
62779;BME280;48821;48.796;2.396;2023-03-14T02:58:10;99236.88;;;13.33;67.52
62779;BME280;48821;48.796;2.396;2023-03-14T02:59:23;99246.56;;;13.33;67.04
62779;BME280;48821;48.796;2.396;2023-03-14T03:00:36;99241.28;;;13.33;67.68
62779;BME280;48821;48.796;2.396;2023-03-14T03:01:49;99243.94;;;13.33;67.71
62779;BME280;48821;48.796;2.396;2023-03-14T03:03:03;99248.34;;;13.32;67.76
62779;BME280;48821;48.796;2.396;2023-03-14T03:04:18;99240.44;;;13.32;67.85
62779;BME280;48821;48.796;2.396;2023-03-14T03:05:32;99248.47;;;13.31;67.68
62779;BME280;48821;48.796;2.396;2023-03-14T03:06:45;99247.63;;;13.30;67.84
62779;BME280;48821;48.796;2.396;2023-03-14T03:07:58;99251.09;;;13.31;67.69
62779;BME280;48821;48.796;2.396;2023-03-14T03:09:12;99248.47;;;13.31;67.62
62779;BME280;48821;48.796;2.396;2023-03-14T03:10:25;99253.75;;;13.31;68.23
62779;BME280;48821;48.796;2.396;2023-03-14T03:11:38;99248.34;;;13.32;68.03
62779;BME280;48821;48.796;2.396;2023-03-14T03:12:51;99258.06;;;13.32;67.99
62779;BME280;48821;48.796;2.396;2023-03-14T03:14:04;99250.13;;;13.32;67.75
62779;BME280;48821;48.796;2.396;2023-03-14T03:15:17;99254.47;;;13.33;68.16
62779;BME280;48821;48.796;2.396;2023-03-14T03:16:31;99252.78;;;13.32;67.91
62779;BME280;48821;48.796;2.396;2023-03-14T03:17:44;99258.06;;;13.32;68.32
62779;BME280;48821;48.796;2.396;2023-03-14T03:18:57;99248.47;;;13.31;68.26
62779;BME280;48821;48.796;2.396;2023-03-14T03:20:10;99253.63;;;13.32;68.64
62779;BME280;48821;48.796;2.396;2023-03-14T03:21:25;99255.41;;;13.32;68.27
62779;BME280;48821;48.796;2.396;2023-03-14T03:22:38;99253.75;;;13.31;68.00
62779;BME280;48821;48.796;2.396;2023-03-14T03:23:52;99246.78;;;13.30;68.19
62779;BME280;48821;48.796;2.396;2023-03-14T03:25:06;99257.31;;;13.30;68.12
62779;BME280;48821;48.796;2.396;2023-03-14T03:26:20;99249.41;;;13.30;68.52
62779;BME280;48821;48.796;2.396;2023-03-14T03:27:35;99260.91;;;13.28;68.50
62779;BME280;48821;48.796;2.396;2023-03-14T03:28:50;99253.84;;;13.29;68.75
62779;BME280;48821;48.796;2.396;2023-03-14T03:30:05;99256.59;;;13.27;68.43
62779;BME280;48821;48.796;2.396;2023-03-14T03:31:18;99264.50;;;13.27;68.75
62779;BME280;48821;48.796;2.396;2023-03-14T03:32:32;99255.75;;;13.27;68.60
62779;BME280;48821;48.796;2.396;2023-03-14T03:33:45;99252.25;;;13.26;68.67
62779;BME280;48821;48.796;2.396;2023-03-14T03:34:58;99258.38;;;13.27;68.68
62779;BME280;48821;48.796;2.396;2023-03-14T03:36:11;99258.38;;;13.27;68.58
62779;BME280;48821;48.796;2.396;2023-03-14T03:37:25;99255.75;;;13.27;68.93
62779;BME280;48821;48.796;2.396;2023-03-14T03:38:38;99260.06;;;13.28;68.75
62779;BME280;48821;48.796;2.396;2023-03-14T03:39:51;99269.78;;;13.27;68.69
62779;BME280;48821;48.796;2.396;2023-03-14T03:41:06;99274.22;;;13.27;68.89
62779;BME280;48821;48.796;2.396;2023-03-14T03:42:19;99269.78;;;13.27;68.84
62779;BME280;48821;48.796;2.396;2023-03-14T03:43:32;99276.84;;;13.27;68.74
62779;BME280;48821;48.796;2.396;2023-03-14T03:44:45;99280.34;;;13.27;68.88
62779;BME280;48821;48.796;2.396;2023-03-14T03:46:04;99274.22;;;13.27;69.13
62779;BME280;48821;48.796;2.396;2023-03-14T03:47:18;99269.03;;;13.25;69.02
62779;BME280;48821;48.796;2.396;2023-03-14T03:48:31;99274.31;;;13.25;69.02
62779;BME280;48821;48.796;2.396;2023-03-14T03:49:44;99280.53;;;13.24;69.37
62779;BME280;48821;48.796;2.396;2023-03-14T03:50:57;99274.41;;;13.24;69.32
62779;BME280;48821;48.796;2.396;2023-03-14T03:52:10;99283.28;;;13.23;69.48
62779;BME280;48821;48.796;2.396;2023-03-14T03:53:25;99278.88;;;13.23;69.16
62779;BME280;48821;48.796;2.396;2023-03-14T03:54:38;99277.16;;;13.22;69.70
62779;BME280;48821;48.796;2.396;2023-03-14T03:55:51;99279.78;;;13.22;69.51
62779;BME280;48821;48.796;2.396;2023-03-14T03:57:04;99286.78;;;13.23;69.48
62779;BME280;48821;48.796;2.396;2023-03-14T03:58:17;99279.69;;;13.24;69.22
62779;BME280;48821;48.796;2.396;2023-03-14T03:59:31;99283.16;;;13.24;69.39
62779;BME280;48821;48.796;2.396;2023-03-14T04:00:44;99285.81;;;13.24;69.53
62779;BME280;48821;48.796;2.396;2023-03-14T04:01:57;99283.91;;;13.26;69.33
62779;BME280;48821;48.796;2.396;2023-03-14T04:03:10;99278.63;;;13.26;69.57
62779;BME280;48821;48.796;2.396;2023-03-14T04:04:24;99288.25;;;13.27;69.24
62779;BME280;48821;48.796;2.396;2023-03-14T04:05:37;99285.59;;;13.27;69.79
62779;BME280;48821;48.796;2.396;2023-03-14T04:06:50;99285.59;;;13.27;69.26
62779;BME280;48821;48.796;2.396;2023-03-14T04:08:04;99295.19;;;13.28;69.95
62779;BME280;48821;48.796;2.396;2023-03-14T04:09:17;99291.75;;;13.28;69.43
62779;BME280;48821;48.796;2.396;2023-03-14T04:10:34;99291.75;;;13.28;69.25
62779;BME280;48821;48.796;2.396;2023-03-14T04:11:47;99292.56;;;13.28;69.40
62779;BME280;48821;48.796;2.396;2023-03-14T04:13:00;99291.75;;;13.28;69.46
62779;BME280;48821;48.796;2.396;2023-03-14T04:14:14;99292.56;;;13.28;69.25
62779;BME280;48821;48.796;2.396;2023-03-14T04:15:27;99292.56;;;13.28;69.12
62779;BME280;48821;48.796;2.396;2023-03-14T04:16:40;99292.56;;;13.28;69.74
62779;BME280;48821;48.796;2.396;2023-03-14T04:17:57;99296.06;;;13.29;69.73
62779;BME280;48821;48.796;2.396;2023-03-14T04:19:11;99299.53;;;13.30;69.19
62779;BME280;48821;48.796;2.396;2023-03-14T04:20:24;99290.88;;;13.27;69.60
62779;BME280;48821;48.796;2.396;2023-03-14T04:21:37;99295.31;;;13.27;69.17
62779;BME280;48821;48.796;2.396;2023-03-14T04:22:53;99298.06;;;13.25;69.48
62779;BME280;48821;48.796;2.396;2023-03-14T04:24:06;99296.28;;;13.26;69.52
62779;BME280;48821;48.796;2.396;2023-03-14T04:25:19;99300.59;;;13.27;69.77
62779;BME280;48821;48.796;2.396;2023-03-14T04:26:33;99293.63;;;13.26;69.70
62779;BME280;48821;48.796;2.396;2023-03-14T04:27:47;99307.66;;;13.26;69.62
62779;BME280;48821;48.796;2.396;2023-03-14T04:29:00;99307.66;;;13.26;69.53
62779;BME280;48821;48.796;2.396;2023-03-14T04:30:13;99307.66;;;13.26;69.76
62779;BME280;48821;48.796;2.396;2023-03-14T04:31:27;99302.38;;;13.26;69.79
62779;BME280;48821;48.796;2.396;2023-03-14T04:32:40;99309.47;;;13.26;70.04
62779;BME280;48821;48.796;2.396;2023-03-14T04:33:53;99307.78;;;13.25;69.58
62779;BME280;48821;48.796;2.396;2023-03-14T04:35:07;99313.91;;;13.25;69.68
62779;BME280;48821;48.796;2.396;2023-03-14T04:36:20;99311.25;;;13.25;69.73
62779;BME280;48821;48.796;2.396;2023-03-14T04:37:33;99320.97;;;13.25;70.32
62779;BME280;48821;48.796;2.396;2023-03-14T04:38:46;99327.09;;;13.25;69.81
62779;BME280;48821;48.796;2.396;2023-03-14T04:40:00;99326.25;;;13.25;69.92
62779;BME280;48821;48.796;2.396;2023-03-14T04:41:13;99330.47;;;13.27;69.77
62779;BME280;48821;48.796;2.396;2023-03-14T04:42:26;99328.75;;;13.26;69.69
62779;BME280;48821;48.796;2.396;2023-03-14T04:43:39;99331.41;;;13.26;69.73
62779;BME280;48821;48.796;2.396;2023-03-14T04:44:52;99326.97;;;13.27;70.07
62779;BME280;48821;48.796;2.396;2023-03-14T04:46:06;99326.88;;;13.28;69.85
62779;BME280;48821;48.796;2.396;2023-03-14T04:47:19;99331.31;;;13.28;70.19
62779;BME280;48821;48.796;2.396;2023-03-14T04:48:32;99347.03;;;13.30;69.88
62779;BME280;48821;48.796;2.396;2023-03-14T04:49:45;99347.78;;;13.32;69.64
62779;BME280;48821;48.796;2.396;2023-03-14T04:50:58;99348.75;;;13.31;69.75
62779;BME280;48821;48.796;2.396;2023-03-14T04:52:11;99361.09;;;13.30;69.84
62779;BME280;48821;48.796;2.396;2023-03-14T04:53:24;99378.69;;;13.30;69.98
62779;BME280;48821;48.796;2.396;2023-03-14T04:54:38;99383.97;;;13.30;70.10
62779;BME280;48821;48.796;2.396;2023-03-14T04:55:53;99413.19;;;13.26;70.43
62779;BME280;48821;48.796;2.396;2023-03-14T04:57:07;99416.06;;;13.23;69.66
62779;BME280;48821;48.796;2.396;2023-03-14T04:58:22;99427.75;;;13.19;70.30
62779;BME280;48821;48.796;2.396;2023-03-14T04:59:35;99439.34;;;13.16;69.37
62779;BME280;48821;48.796;2.396;2023-03-14T05:00:48;99446.63;;;13.13;69.04
62779;BME280;48821;48.796;2.396;2023-03-14T05:02:02;99446.06;;;13.08;68.48
62779;BME280;48821;48.796;2.396;2023-03-14T05:03:16;99455.94;;;13.04;67.94
62779;BME280;48821;48.796;2.396;2023-03-14T05:04:29;99453.63;;;12.99;67.36
62779;BME280;48821;48.796;2.396;2023-03-14T05:05:45;99476.03;;;12.92;67.08
62779;BME280;48821;48.796;2.396;2023-03-14T05:06:59;99460.63;;;12.86;67.21
62779;BME280;48821;48.796;2.396;2023-03-14T05:08:12;99458.56;;;12.76;66.40
62779;BME280;48821;48.796;2.396;2023-03-14T05:09:25;99482.50;;;12.73;66.83
62779;BME280;48821;48.796;2.396;2023-03-14T05:10:39;99480.13;;;12.68;66.37
62779;BME280;48821;48.796;2.396;2023-03-14T05:11:52;99483.06;;;12.64;66.68
62779;BME280;48821;48.796;2.396;2023-03-14T05:13:05;99494.81;;;12.58;66.22
62779;BME280;48821;48.796;2.396;2023-03-14T05:14:18;99495.09;;;12.53;66.19
62779;BME280;48821;48.796;2.396;2023-03-14T05:15:32;99484.84;;;12.48;66.20
62779;BME280;48821;48.796;2.396;2023-03-14T05:16:45;99506.22;;;12.44;65.92
62779;BME280;48821;48.796;2.396;2023-03-14T05:17:58;99503.94;;;12.37;65.09
62779;BME280;48821;48.796;2.396;2023-03-14T05:19:11;99507.81;;;12.32;65.09
62779;BME280;48821;48.796;2.396;2023-03-14T05:20:24;99517.78;;;12.26;63.70
62779;BME280;48821;48.796;2.396;2023-03-14T05:21:38;99529.53;;;12.21;64.55
62779;BME280;48821;48.796;2.396;2023-03-14T05:22:51;99528.94;;;12.15;63.69
62779;BME280;48821;48.796;2.396;2023-03-14T05:24:04;99535.41;;;12.10;63.47
62779;BME280;48821;48.796;2.396;2023-03-14T05:25:17;99539.25;;;12.04;63.18
62779;BME280;48821;48.796;2.396;2023-03-14T05:26:31;99542.22;;;11.98;63.74
62779;BME280;48821;48.796;2.396;2023-03-14T05:27:44;99544.19;;;11.94;64.29
62779;BME280;48821;48.796;2.396;2023-03-14T05:28:57;99538.25;;;11.90;63.46
62779;BME280;48821;48.796;2.396;2023-03-14T05:30:10;99547.16;;;11.88;63.47
62779;BME280;48821;48.796;2.396;2023-03-14T05:31:24;99554.31;;;11.86;64.56
62779;BME280;48821;48.796;2.396;2023-03-14T05:32:34;99557.03;;;11.84;64.61
62779;BME280;48821;48.796;2.396;2023-03-14T05:33:45;99561.44;;;11.84;64.50
62779;BME280;48821;48.796;2.396;2023-03-14T05:34:59;99564.19;;;11.82;64.77
62779;BME280;48821;48.796;2.396;2023-03-14T05:36:12;99569.44;;;11.82;64.61
62779;BME280;48821;48.796;2.396;2023-03-14T05:37:26;99573.75;;;11.83;64.80
62779;BME280;48821;48.796;2.396;2023-03-14T05:38:39;99584.28;;;11.83;64.86
62779;BME280;48821;48.796;2.396;2023-03-14T05:39:52;99573.75;;;11.83;64.68
62779;BME280;48821;48.796;2.396;2023-03-14T05:41:06;99583.53;;;11.81;64.24
62779;BME280;48821;48.796;2.396;2023-03-14T05:42:19;99589.75;;;11.80;64.29
62779;BME280;48821;48.796;2.396;2023-03-14T05:43:30;99581.06;;;11.78;63.93
62779;BME280;48821;48.796;2.396;2023-03-14T05:44:41;99589.91;;;11.77;63.43
62779;BME280;48821;48.796;2.396;2023-03-14T05:45:54;99589.31;;;11.72;63.58
62779;BME280;48821;48.796;2.396;2023-03-14T05:47:07;99604.38;;;11.69;62.59
62779;BME280;48821;48.796;2.396;2023-03-14T05:48:20;99604.53;;;11.66;63.13
62779;BME280;48821;48.796;2.396;2023-03-14T05:49:32;99612.53;;;11.65;62.90
62779;BME280;48821;48.796;2.396;2023-03-14T05:50:43;99617.09;;;11.61;63.30
62779;BME280;48821;48.796;2.396;2023-03-14T05:51:56;99630.59;;;11.55;61.29
62779;BME280;48821;48.796;2.396;2023-03-14T05:53:09;99635.94;;;11.53;62.31
62779;BME280;48821;48.796;2.396;2023-03-14T05:54:22;99637.03;;;11.49;62.67
62779;BME280;48821;48.796;2.396;2023-03-14T05:55:35;99635.44;;;11.46;61.96
62779;BME280;48821;48.796;2.396;2023-03-14T05:56:49;99632.94;;;11.43;62.80
62779;BME280;48821;48.796;2.396;2023-03-14T05:58:02;99633.91;;;11.42;62.96
62779;BME280;48821;48.796;2.396;2023-03-14T05:59:15;99649.69;;;11.42;62.61
62779;BME280;48821;48.796;2.396;2023-03-14T06:00:28;99658.50;;;11.41;62.93
62779;BME280;48821;48.796;2.396;2023-03-14T06:01:41;99662.09;;;11.40;61.51
62779;BME280;48821;48.796;2.396;2023-03-14T06:02:55;99661.31;;;11.38;62.21
62779;BME280;48821;48.796;2.396;2023-03-14T06:04:08;99675.41;;;11.37;62.52
62779;BME280;48821;48.796;2.396;2023-03-14T06:05:18;99678.94;;;11.36;62.26
62779;BME280;48821;48.796;2.396;2023-03-14T06:06:29;99684.31;;;11.34;62.34
62779;BME280;48821;48.796;2.396;2023-03-14T06:07:43;99682.69;;;11.32;61.36
62779;BME280;48821;48.796;2.396;2023-03-14T06:08:56;99691.59;;;11.29;60.78
62779;BME280;48821;48.796;2.396;2023-03-14T06:10:09;99708.31;;;11.28;61.18
62779;BME280;48821;48.796;2.396;2023-03-14T06:11:23;99690.91;;;11.25;60.36
62779;BME280;48821;48.796;2.396;2023-03-14T06:12:36;99706.75;;;11.24;60.69
62779;BME280;48821;48.796;2.396;2023-03-14T06:13:50;99697.19;;;11.23;61.35
62779;BME280;48821;48.796;2.396;2023-03-14T06:15:04;99708.56;;;11.23;61.27
62779;BME280;48821;48.796;2.396;2023-03-14T06:16:17;99706.00;;;11.22;59.58
62779;BME280;48821;48.796;2.396;2023-03-14T06:17:30;99723.63;;;11.20;60.06
62779;BME280;48821;48.796;2.396;2023-03-14T06:18:43;99734.31;;;11.17;60.40
62779;BME280;48821;48.796;2.396;2023-03-14T06:19:59;99727.41;;;11.14;59.41
62779;BME280;48821;48.796;2.396;2023-03-14T06:21:12;99748.56;;;11.12;58.39
62779;BME280;48821;48.796;2.396;2023-03-14T06:22:25;99761.09;;;11.07;59.68
62779;BME280;48821;48.796;2.396;2023-03-14T06:23:38;99739.38;;;11.03;59.11
62779;BME280;48821;48.796;2.396;2023-03-14T06:24:49;99761.31;;;11.02;59.58
62779;BME280;48821;48.796;2.396;2023-03-14T06:26:00;99770.31;;;10.98;59.24
62779;BME280;48821;48.796;2.396;2023-03-14T06:27:14;99774.06;;;10.93;56.87
62779;BME280;48821;48.796;2.396;2023-03-14T06:28:27;99775.94;;;10.90;57.32
62779;BME280;48821;48.796;2.396;2023-03-14T06:29:40;99781.28;;;10.89;58.65
62779;BME280;48821;48.796;2.396;2023-03-14T06:30:53;99785.69;;;10.88;58.88
62779;BME280;48821;48.796;2.396;2023-03-14T06:32:06;99803.22;;;10.88;59.11
62779;BME280;48821;48.796;2.396;2023-03-14T06:33:20;99794.44;;;10.89;59.40
62779;BME280;48821;48.796;2.396;2023-03-14T06:34:33;99799.69;;;10.89;57.18